UTDK

Kulob Airport

Kulyab, Tajikistan
TAF UTDK 161800Z 1619/1704 03005MPS 6000 FEW066 SCT130
Issued Valid From Valid To
Jul-16 @ 18:00 UTC
(2 hours ago)
Jul-16 @ 19:00 UTC
(51 minutes ago)
Jul-17 @ 04:00 UTC
(in 8 hours)
Jul-16 @ 19:00 to Jul-17 @ 04:00
TAF UTDK 161800Z 1619/1704 03005MPS 6000 FEW066 SCT130
Wind Visibility Clouds
30° at 10 knots 6,003 meters
  • Few at 6,600' AGL
  • Scattered at 13,000' AGL
TAF UTDK 161800Z 1619/1704 03005MPS 6000 FEW066 SCT130
Issued Jul-16 @ 18:00 UTC
(2 hours ago)
Valid From Jul-16 @ 19:00 UTC
(51 minutes ago)
Valid To Jul-17 @ 04:00 UTC
(in 8 hours)
Jul-16 @ 19:00 - Jul-17 @ 04:00
Wind Visibility
30° at 10 knots 6,003 meters
Clouds
  • Few at 6,600' AGL
  • Scattered at 13,000' AGL